地図

経路データ

SID SEASON NUMBER BASIN SUBBASIN NAME ISO_TIME NATURE LAT LON WMO_WIND WMO_PRES WMO_AGENCY TRACK_TYPE DIST2LAND LANDFALL IFLAG USA_AGENCY USA_ATCF_ID USA_LAT USA_LON USA_RECORD USA_STATUS USA_WIND USA_PRES USA_SSHS USA_R34_NE USA_R34_SE USA_R34_SW USA_R34_NW USA_R50_NE USA_R50_SE USA_R50_SW USA_R50_NW USA_R64_NE USA_R64_SE USA_R64_SW USA_R64_NW USA_POCI USA_ROCI USA_RMW USA_EYE TOKYO_LAT TOKYO_LON TOKYO_GRADE TOKYO_WIND TOKYO_PRES TOKYO_R50_DIR TOKYO_R50_LONG TOKYO_R50_SHORT TOKYO_R30_DIR TOKYO_R30_LONG TOKYO_R30_SHORT TOKYO_LAND CMA_LAT CMA_LON CMA_CAT CMA_WIND CMA_PRES HKO_LAT HKO_LON HKO_CAT HKO_WIND HKO_PRES NEWDELHI_LAT NEWDELHI_LON NEWDELHI_GRADE NEWDELHI_WIND NEWDELHI_PRES NEWDELHI_CI NEWDELHI_DP NEWDELHI_POCI REUNION_LAT REUNION_LON REUNION_TYPE REUNION_WIND REUNION_PRES REUNION_TNUM REUNION_CI REUNION_RMW REUNION_R34_NE REUNION_R34_SE REUNION_R34_SW REUNION_R34_NW REUNION_R50_NE REUNION_R50_SE REUNION_R50_SW REUNION_R50_NW REUNION_R64_NE REUNION_R64_SE REUNION_R64_SW REUNION_R64_NW BOM_LAT BOM_LON BOM_TYPE BOM_WIND BOM_PRES BOM_TNUM BOM_CI BOM_RMW BOM_R34_NE BOM_R34_SE BOM_R34_SW BOM_R34_NW BOM_R50_NE BOM_R50_SE BOM_R50_SW BOM_R50_NW BOM_R64_NE BOM_R64_SE BOM_R64_SW BOM_R64_NW BOM_ROCI BOM_POCI BOM_EYE BOM_POS_METHOD BOM_PRES_METHOD NADI_LAT NADI_LON NADI_CAT NADI_WIND NADI_PRES WELLINGTON_LAT WELLINGTON_LON WELLINGTON_WIND WELLINGTON_PRES DS824_LAT DS824_LON DS824_STAGE DS824_WIND DS824_PRES TD9636_LAT TD9636_LON TD9636_STAGE TD9636_WIND TD9636_PRES TD9635_LAT TD9635_LON TD9635_WIND TD9635_PRES TD9635_ROCI NEUMANN_LAT NEUMANN_LON NEUMANN_CLASS NEUMANN_WIND NEUMANN_PRES MLC_LAT MLC_LON MLC_CLASS MLC_WIND MLC_PRES USA_GUST BOM_GUST BOM_GUST_PER REUNION_GUST REUNION_GUST_PER USA_SEAHGT USA_SEARAD_NE USA_SEARAD_SE USA_SEARAD_SW USA_SEARAD_NW STORM_SPEED STORM_DIR
1934013S16058 1934 6 SI MM NOT_NAMED 1934-01-13 06:00:00 NR -15.7000 57.7000 reunion main 492 492 _____O________ -1 -15.7000 57.7000 99 9.90000 1 65
1934013S16058 1934 6 SI MM NOT_NAMED 1934-01-13 09:00:00 NR -15.6830 57.7501 main 492 492 _____P________ -1 -15.6830 57.7501 99 1 71
1934013S16058 1934 6 SI MM NOT_NAMED 1934-01-13 12:00:00 NR -15.6712 57.7860 main 492 492 _____P________ -1 -15.6712 57.7860 99 0 71
1934013S16058 1934 6 SI MM NOT_NAMED 1934-01-13 15:00:00 NR -15.6698 57.7933 main 492 492 _____P________ -1 -15.6698 57.7933 99 1 253
1934013S16058 1934 6 SI MM NOT_NAMED 1934-01-13 18:00:00 NR -15.6873 57.7262 main 492 492 _____P____O___ -1 -15.6841 57.7577 99 -15.7000 57.6000 4 2 246
1934013S16058 1934 6 SI MM NOT_NAMED 1934-01-13 21:00:00 NR -15.7423 57.6168 main 492 481 _____P____P___ -1 -15.7192 57.6650 99 -15.7887 57.5203 4 3 242
1934013S16058 1934 6 SI MM NOT_NAMED 1934-01-14 00:00:00 NR -15.8238 57.4587 main 481 470 _____P____P___ -1 -15.7802 57.5009 99 -15.8819 57.4025 4 4 244
1934013S16058 1934 6 SI MM NOT_NAMED 1934-01-14 03:00:00 NR -15.9282 57.2296 main 471 459 _____P____P___ -1 -15.8722 57.2508 99 -15.9843 57.2085 4 6 247
1934013S16058 1934 6 SI MM NOT_NAMED 1934-01-14 06:00:00 TS -16.0556 56.9000 reunion main 452 446 _____O___OO___ -1 -16.0000 56.9000 99 9.90000 -16.1000 56.9000 TC 65 -16.1000 56.9000 4 8 250
1934013S16058 1934 6 SI MM NOT_NAMED 1934-01-14 09:00:00 TS -16.2091 56.4139 main 451 443 _____P___PP___ -1 -16.1665 56.4402 99 -16.2455 56.2852 TC 65 -16.2335 56.4518 4 11 252
1934013S16058 1934 6 SI MM NOT_NAMED 1934-01-14 12:00:00 TS -16.3844 55.8384 main 451 449 _____P___OP___ -1 -16.3665 55.8887 99 -16.4000 55.7000 TC 65 -16.3905 55.8918 4 12 252
1934013S16058 1934 6 SI MM NOT_NAMED 1934-01-14 15:00:00 TS -16.5825 55.2291 main 460 460 _____P___PP___ -1 -16.5932 55.2692 99 -16.5772 55.1572 TC 65 -16.5771 55.2609 4 13 250
1934013S16058 1934 6 SI MM NOT_NAMED 1934-01-14 18:00:00 TS -16.8133 54.6019 main 465 419 _____P___OO___ -1 -16.8399 54.6058 99 -16.8000 54.6000 TC 65 -16.8000 54.6000 4 13 248
1934013S16058 1934 6 SI MM NOT_NAMED 1934-01-14 21:00:00 TS -17.0886 53.9398 main 409 365 _____P___PP___ -1 -17.0999 53.9226 99 -17.0849 53.9650 TC 65 -17.0808 53.9319 4 14 246
1934013S16058 1934 6 SI MM NOT_NAMED 1934-01-15 00:00:00 TS -17.3868 53.2644 main 365 313 _____P___OP___ -1 -17.3671 53.2442 99 -17.4000 53.3000 TC 65 -17.3933 53.2489 4 14 245
1934013S16058 1934 6 SI MM NOT_NAMED 1934-01-15 03:00:00 TS -17.6866 52.5997 main 313 266 _____P___PP___ -1 -17.6357 52.5951 99 -17.7151 52.6126 TC 65 -17.7091 52.5912 4 13 244
1934013S16058 1934 6 SI MM NOT_NAMED 1934-01-15 06:00:00 TS -17.9667 52.0000 reunion main 266 226 _____O___OO___ -1 -17.9000 52.0000 99 9.90000 -18.0000 52.0000 TC 65 -18.0000 52.0000 4 11 244
1934013S16058 1934 6 SI MM NOT_NAMED 1934-01-15 09:00:00 TS -18.1918 51.5315 main 218 180 _____P___PP___ -1 -18.1452 51.5176 99 -18.2146 51.5622 TC 65 -18.2155 51.5148 4 9 242
1934013S16058 1934 6 SI MM NOT_NAMED 1934-01-15 12:00:00 TS -18.3995 51.1255 main 180 151 _____P___OP___ -1 -18.3922 51.0755 99 -18.4000 51.2000 TC 65 -18.4062 51.1011 4 9 241
1934013S16058 1934 6 SI MM NOT_NAMED 1934-01-15 15:00:00 TS -18.6085 50.7339 main 144 124 _____P___PP___ -1 -18.6392 50.6726 99 -18.5925 50.7924 TC 65 -18.5939 50.7369 4 8 239
1934013S16058 1934 6 SI MM NOT_NAMED 1934-01-15 18:00:00 TS -18.8280 50.3691 main 124 95 _____P___OO___ -1 -18.8840 50.3074 99 -18.8000 50.4000 TC 65 -18.8000 50.4000 4 8 235
1934013S16058 1934 6 SI MM NOT_NAMED 1934-01-15 21:00:00 TS -19.0778 50.0130 main 95 71 _____P___PP___ -1 -19.1247 49.9788 99 -19.0349 50.0349 TC 65 -19.0737 50.0253 4 8 231
1934013S16058 1934 6 SI MM NOT_NAMED 1934-01-16 00:00:00 TS -19.3413 49.6870 main 71 56 _____P___OP___ -1 -19.3590 49.6855 99 -19.3000 49.7000 TC 65 -19.3650 49.6755 4 8 228
1934013S16058 1934 6 SI MM NOT_NAMED 1934-01-16 03:00:00 TS -19.6162 49.3864 main 56 31 _____P___PP___ -1 -19.5848 49.4262 99 -19.6150 49.3701 TC 65 -19.6488 49.3629 4 7 225
1934013S16058 1934 6 SI MM NOT_NAMED 1934-01-16 06:00:00 TS -19.8667 49.1333 reunion main 31 10 _____O___OO___ -1 -19.8000 49.2000 99 9.90000 -19.9000 49.1000 TC 65 -19.9000 49.1000 4 6 225
1934013S16058 1934 6 SI MM NOT_NAMED 1934-01-16 09:00:00 TS -20.0465 48.9310 main 10 10 _____P___PP___ -1 -19.9896 48.9749 99 -20.0724 48.9273 TC 65 -20.0775 48.8909 4 5 226
1934013S16058 1934 6 SI MM NOT_NAMED 1934-01-16 12:00:00 TS -20.1968 48.7727 main 10 0 _____P___OP___ -1 -20.1681 48.7863 99 -20.2000 48.8000 TC 65 -20.2221 48.7318 4 4 224
1934013S16058 1934 6 SI MM NOT_NAMED 1934-01-16 15:00:00 TS -20.3457 48.6265 main 0 0 _____P___PP___ -1 -20.3390 48.6303 99 -20.3425 48.6425 TC 65 -20.3557 48.6067 4 4 220
1934013S16058 1934 6 SI MM NOT_NAMED 1934-01-16 18:00:00 TS -20.5019 48.5010 main 0 0 _____P___OO___ -1 -20.5057 48.5030 99 -20.5000 48.5000 TC 65 -20.5000 48.5000 4 4 213
1934013S16058 1934 6 SI MM NOT_NAMED 1934-01-16 21:00:00 TS -20.6846 48.3887 main 0 0 _____P___PP___ -1 -20.6717 48.4002 99 -20.6925 48.3925 TC 65 -20.6897 48.3735 4 4 207
1934013S16058 1934 6 SI MM NOT_NAMED 1934-01-17 00:00:00 TS -20.8777 48.2936 main 0 0 _____P___OP___ -1 -20.8405 48.3182 99 -20.9000 48.3000 TC 65 -20.8925 48.2626 4 4 204
1934013S16058 1934 6 SI MM NOT_NAMED 1934-01-17 03:00:00 TS -21.0740 48.2052 main 0 0 _____P___PP___ -1 -21.0155 48.2528 99 -21.1075 48.1925 TC 65 -21.0990 48.1704 4 4 201
1934013S16058 1934 6 SI MM NOT_NAMED 1934-01-17 06:00:00 TS -21.2667 48.1333 reunion main 0 0 _____O___OO___ -1 -21.2000 48.2000 99 9.90000 -21.3000 48.1000 TC 65 -21.3000 48.1000 4 4 200
1934013S16058 1934 6 SI MM NOT_NAMED 1934-01-17 09:00:00 TS -21.4312 48.0677 main 0 0 _____P___PP___ -1 -21.3738 48.1189 99 -21.4500 48.0350 TC 65 -21.4700 48.0492 4 3 197
1934013S16058 1934 6 SI MM NOT_NAMED 1934-01-17 12:00:00 TS -21.5957 48.0241 main 0 0 _____P___OP___ -1 -21.5521 48.0525 99 -21.6000 48.0000 TC 65 -21.6350 48.0198 4 4 192
1934013S16058 1934 6 SI MM NOT_NAMED 1934-01-17 15:00:00 TS -21.7775 47.9998 main 0 0 _____P___PP___ -1 -21.7399 48.0015 99 -21.7850 47.9925 TC 65 -21.8075 48.0055 4 4 187
1934013S16058 1934 6 SI MM NOT_NAMED 1934-01-17 18:00:00 TS -21.9808 47.9888 main 0 0 _____P___OO___ -1 -21.9424 47.9664 99 -22.0000 48.0000 TC 65 -22.0000 48.0000 4 4 0
1934013S16058 1934 6 SI MM NOT_NAMED 1934-01-17 21:00:00 TS -22.2023 47.9776 main 0 0 _____P___PP___ -1 -22.1645 47.9480 99 -22.2425 48.0000 TC 65 -22.2000 47.9848 4 5 181
1934013S16058 1934 6 SI MM NOT_NAMED 1934-01-18 00:00:00 TS -22.4455 47.9749 main 10 10 _____P___OP___ -1 -22.4115 47.9470 99 -22.5000 48.0000 TC 65 -22.4250 47.9777 4 5 0
1934013S16058 1934 6 SI MM NOT_NAMED 1934-01-18 03:00:00 TS -22.6986 47.9795 main 20 20 _____P___PP___ -1 -22.6883 47.9641 99 -22.7200 47.9926 TC 65 -22.6875 47.9817 4 6 0
1934013S16058 1934 6 SI MM NOT_NAMED 1934-01-18 06:00:00 TS -23.0000 48.0000 reunion main 23 23 _____O___OO___ -1 -23.0000 48.0000 99 9.90000 -23.0000 48.0000 TC 65 -23.0000 48.0000 4 7 175
1934013S16058 1934 6 SI MM NOT_NAMED 1934-01-18 09:00:00 TS -23.3994 48.0405 main 30 30 _____P___PP___ -1 -23.4083 48.0595 99 -23.4275 48.0424 TC 65 -23.3625 48.0197 4 9 174
1934013S16058 1934 6 SI MM NOT_NAMED 1934-01-18 12:00:00 TS -23.8445 48.0989 main 55 55 _____P___OP___ -1 -23.8586 48.1411 99 -23.9000 48.1000 TC 65 -23.7750 48.0556 4 9 173
1934013S16058 1934 6 SI MM NOT_NAMED 1934-01-18 15:00:00 TS -24.2838 48.1629 main 78 78 _____P___PP___ -1 -24.3341 48.2398 99 -24.2925 48.1352 TC 65 -24.2250 48.1137 4 9 171
1934013S16058 1934 6 SI MM NOT_NAMED 1934-01-18 18:00:00 TS -24.7393 48.2501 main 103 103 _____P___OO___ -1 -24.8180 48.3503 99 -24.7000 48.2000 TC 65 -24.7000 48.2000 4 10 169
1934013S16058 1934 6 SI MM NOT_NAMED 1934-01-18 21:00:00 TS -25.2225 48.3735 main 132 132 _____P___PP___ -1 -25.2933 48.4671 99 -25.1850 48.3349 TC 65 -25.1891 48.3185 4 10 166
1934013S16058 1934 6 SI MM NOT_NAMED 1934-01-19 00:00:00 TS -25.7136 48.5230 main 160 160 _____P___OP___ -1 -25.7433 48.5848 99 -25.7000 48.5000 TC 65 -25.6877 48.4634 4 10 165
1934013S16058 1934 6 SI MM NOT_NAMED 1934-01-19 03:00:00 TS -26.1749 48.6693 main 208 208 _____P___PP___ -1 -26.1511 48.6977 99 -26.2050 48.6549 TC 65 -26.1924 48.6267 4 9 164
1934013S16058 1934 6 SI MM NOT_NAMED 1934-01-19 06:00:00 TS -26.5667 48.8000 reunion main 245 245 _____O___OO___ -1 -26.5000 48.8000 99 9.90000 -26.7000 48.8000 TC 65 -26.7000 48.8000 4 6 162
1934013S16058 1934 6 SI MM NOT_NAMED 1934-01-19 09:00:00 NR -26.7776 48.8870 main 268 268 _____P________ -1 -26.7776 48.8870 99 TC 4 4 161
1934013S16058 1934 6 SI MM NOT_NAMED 1934-01-19 12:00:00 NR -26.9892 48.9594 main 291 291 _____P________ -1 -26.9892 48.9594 99 4 4 162
1934013S16058 1934 6 SI MM NOT_NAMED 1934-01-19 15:00:00 NR -27.1441 49.0192 main 299 299 _____P________ -1 -27.1441 49.0192 99 4 3 160
1934013S16058 1934 6 SI MM NOT_NAMED 1934-01-19 18:00:00 NR -27.2518 49.0682 main 322 322 _____P________ -1 -27.2518 49.0682 99 2 157
1934013S16058 1934 6 SI MM NOT_NAMED 1934-01-19 21:00:00 NR -27.3218 49.1087 main 322 322 _____P________ -1 -27.3218 49.1087 99 1 148
1934013S16058 1934 6 SI MM NOT_NAMED 1934-01-20 00:00:00 NR -27.3636 49.1427 main 331 331 _____P________ -1 -27.3636 49.1427 99 1 137
1934013S16058 1934 6 SI MM NOT_NAMED 1934-01-20 03:00:00 NR -27.3865 49.1724 main 337 337 _____P________ -1 -27.3865 49.1724 99 1 122
1934013S16058 1934 6 SI MM NOT_NAMED 1934-01-20 06:00:00 NR -27.4000 49.2000 reunion main 337 _____O________ -1 -27.4000 49.2000 99 9.90000 1 0

IBTrACS Databaseについて

本データベースは、米国NOAAが公開する1842年以降の世界の熱帯低気圧のベストトラックデータアーカイブInternational Best Track Archive for Climate Stewardship (IBTrACS)を、ウェブで閲覧しやすい形式に変換したものです。

最終更新日:2021-10-27